Stations météo

réclame
Mon MeteoGroup
Getafe Airbase, Espagne (8225): Température de l'air & dewpoint: 07.12.2017 04:00:00 - 13.12.2017 04:00:00 (CET)Getafe Airbase, Espagne (8225): Vitesse du vent: 07.12.2017 04:00:00 - 13.12.2017 04:00:00 (CET)Getafe Airbase, Espagne (8225): Direction du vent: 07.12.2017 04:00:00 - 13.12.2017 04:00:00 (CET)Getafe Airbase, Espagne (8225): visibility: 07.12.2017 04:00:00 - 13.12.2017 04:00:00 (CET)
Date & Time tt [°C] td [°C] ff [km/h] ff [knt] dd vv [km]
13.12.2017 04:00:00 - - - - - -
13.12.2017 03:00:00 - - - - - -
13.12.2017 02:00:00 - - - - - -
13.12.2017 01:00:00 - - - - - -
13.12.2017 00:00:00 - - - - - -
12.12.2017 23:00:00 - - - - - -
12.12.2017 22:00:00 - - - - - -
12.12.2017 21:00:00 - - - - - -
12.12.2017 20:00:00 - - - - - -
12.12.2017 19:00:00 6,0 -2,0 9 5 W 10
12.12.2017 18:00:00 7,0 -2,0 13 7 W 10
12.12.2017 17:00:00 9,0 -2,0 16 9 NW 10
12.12.2017 16:00:00 9,0 -2,0 13 7 NNW 10
12.12.2017 15:00:00 9,0 -2,0 8 4 NW 10
12.12.2017 14:00:00 8,0 -3,0 4 2 ESE 10
12.12.2017 13:00:00 7,0 -3,0 9 5 S 10
12.12.2017 12:00:00 6,0 -1,0 4 2 S 10
12.12.2017 11:00:00 5,0 -2,0 5 3 SE 10
12.12.2017 10:00:00 2,0 -2,0 5 3 ESE 10
12.12.2017 09:00:00 0,0 -3,0 4 2 SSE 10
12.12.2017 08:00:00 -1,0 -4,0 0 0 N 10
12.12.2017 07:00:00 -1,0 -4,0 4 2 WNW 10
12.12.2017 06:00:00 0,0 -3,0 2 1 WSW 10
12.12.2017 05:00:00 - - - - - -
12.12.2017 04:00:00 - - - - - -
12.12.2017 03:00:00 - - - - - -
12.12.2017 02:00:00 - - - - - -
12.12.2017 01:00:00 - - - - - -
12.12.2017 00:00:00 - - - - - -
11.12.2017 23:00:00 6,0 1,0 18 10 WNW 10
11.12.2017 22:00:00 6,0 3,0 13 7 W 10
11.12.2017 21:00:00 6,0 4,0 13 7 WSW 10
11.12.2017 20:00:00 6,0 3,0 15 8 WSW 10
11.12.2017 19:00:00 7,0 2,0 16 9 W 10
11.12.2017 18:00:00 7,0 3,0 24 13 WSW 10
11.12.2017 17:00:00 7,0 3,0 26 14 SW 10
11.12.2017 16:00:00 9,0 3,0 31 17 SW 10
11.12.2017 15:00:00 9,0 4,0 28 15 WSW 10
11.12.2017 14:00:00 9,0 4,0 26 14 SW 10
11.12.2017 13:00:00 8,0 4,0 24 13 WSW 10
11.12.2017 12:00:00 8,0 5,0 26 14 WSW 10
11.12.2017 11:00:00 7,0 5,0 31 17 WSW 10
11.12.2017 10:00:00 6,0 5,0 28 15 WSW 10
11.12.2017 09:00:00 6,0 4,0 28 15 WSW 10
11.12.2017 08:00:00 6,0 5,0 34 18 WSW 10
11.12.2017 07:00:00 6,0 5,0 34 18 WSW 10
11.12.2017 06:00:00 6,0 5,0 34 18 WSW 10
11.12.2017 05:00:00 - - - - - -
11.12.2017 04:00:00 - - - - - -
11.12.2017 03:00:00 - - - - - -
11.12.2017 02:00:00 - - - - - -
11.12.2017 01:00:00 - - - - - -
11.12.2017 00:00:00 - - - - - -
10.12.2017 23:00:00 - - - - - -
10.12.2017 22:00:00 - - - - - -
10.12.2017 21:00:00 - - - - - -
10.12.2017 20:00:00 - - - - - -
10.12.2017 19:00:00 10,0 9,0 41 22 SW 10
10.12.2017 18:00:00 10,0 9,0 31 17 SW 4,0
10.12.2017 17:00:00 11,0 8,0 26 14 SSW 10
10.12.2017 16:00:00 12,0 8,0 31 17 SW 10
10.12.2017 15:00:00 11,0 8,0 41 22 SW 10
10.12.2017 14:00:00 11,0 8,0 34 18 SW 10
10.12.2017 13:00:00 11,0 8,0 37 20 WSW 10
10.12.2017 12:00:00 10,0 8,0 29 16 WSW 10
10.12.2017 11:00:00 10,0 8,0 29 16 SW 10
10.12.2017 10:00:00 10,0 8,0 28 15 SW 10
10.12.2017 09:00:00 9,0 8,0 22 12 WSW 10
10.12.2017 08:00:00 9,0 8,0 22 12 WSW 10
10.12.2017 07:00:00 9,0 8,0 18 10 WSW 10
10.12.2017 06:00:00 9,0 8,0 22 12 WSW 10
10.12.2017 05:00:00 - - - - - -
10.12.2017 04:00:00 - - - - - -
10.12.2017 03:00:00 - - - - - -
10.12.2017 02:00:00 - - - - - -
10.12.2017 01:00:00 - - - - - -
10.12.2017 00:00:00 - - - - - -
09.12.2017 23:00:00 - - - - - -
09.12.2017 22:00:00 - - - - - -
09.12.2017 21:00:00 - - - - - -
09.12.2017 20:00:00 - - - - - -
09.12.2017 19:00:00 12,0 9,0 11 6 SW 10
09.12.2017 18:00:00 12,0 8,0 15 8 WSW 10
09.12.2017 17:00:00 13,0 8,0 16 9 WSW 10
09.12.2017 16:00:00 13,0 9,0 11 6 SW 10
09.12.2017 15:00:00 12,0 9,0 13 7 SSW 10
09.12.2017 14:00:00 13,0 8,0 16 9 W 10
09.12.2017 13:00:00 13,0 8,0 16 9 W 10
09.12.2017 12:00:00 9,0 5,0 4 2 SE 9
09.12.2017 11:00:00 7,0 4,0 2 1 ESE 8
09.12.2017 10:00:00 7,0 3,0 0 0 N 8
09.12.2017 09:00:00 3,0 1,0 0 0 N 8
09.12.2017 08:00:00 2,0 1,0 2 1 SW 10
09.12.2017 07:00:00 4,0 2,0 0 0 N 10
09.12.2017 06:00:00 - - - - - -
09.12.2017 05:00:00 - - - - - -
09.12.2017 04:00:00 - - - - - -
09.12.2017 03:00:00 - - - - - -
09.12.2017 02:00:00 - - - - - -
09.12.2017 01:00:00 - - - - - -
09.12.2017 00:00:00 - - - - - -
08.12.2017 23:00:00 - - - - - -
08.12.2017 22:00:00 - - - - - -
08.12.2017 21:00:00 - - - - - -
08.12.2017 20:00:00 - - - - - -
08.12.2017 19:00:00 9,0 1,0 16 9 WSW 10
08.12.2017 18:00:00 11,0 1,0 8 4 WSW 10
08.12.2017 17:00:00 11,0 1,0 5 3 SW 10
08.12.2017 16:00:00 11,0 1,0 11 6 WSW 10
08.12.2017 15:00:00 10,0 1,0 0 0 N 10
08.12.2017 14:00:00 9,0 1,0 0 0 N 10
08.12.2017 13:00:00 8,0 0,0 0 0 N 10
08.12.2017 12:00:00 7,0 -1,0 0 0 N 9
08.12.2017 11:00:00 5,0 -1,0 0 0 N 10
08.12.2017 10:00:00 4,0 -2,0 0 0 N 10
08.12.2017 09:00:00 0,0 -3,0 0 0 N 10
08.12.2017 08:00:00 0,0 -2,0 0 0 N 10
08.12.2017 07:00:00 0,0 -2,0 0 0 N 10
08.12.2017 06:00:00 1,0 -2,0 2 1 S 10
08.12.2017 05:00:00 - - - - - -
08.12.2017 04:00:00 - - - - - -
08.12.2017 03:00:00 - - - - - -
08.12.2017 02:00:00 - - - - - -
08.12.2017 01:00:00 - - - - - -
08.12.2017 00:00:00 - - - - - -
07.12.2017 23:00:00 - - - - - -
07.12.2017 22:00:00 - - - - - -
07.12.2017 21:00:00 - - - - - -
07.12.2017 20:00:00 - - - - - -
07.12.2017 19:00:00 6,0 -2,0 0 0 N 10
07.12.2017 18:00:00 7,0 -2,0 0 0 N 10
07.12.2017 17:00:00 10,0 -2,0 0 0 N 10
07.12.2017 16:00:00 10,0 -2,0 4 2 S 10
07.12.2017 15:00:00 9,0 -1,0 4 2 SSE 10
07.12.2017 14:00:00 8,0 -1,0 0 0 N 10
07.12.2017 13:00:00 6,0 -1,0 4 2 ESE 10
07.12.2017 12:00:00 4,0 -2,0 0 0 N 10
07.12.2017 11:00:00 3,0 -3,0 0 0 N 10
07.12.2017 10:00:00 -1,0 -4,0 0 0 N 10
07.12.2017 09:00:00 -2,0 -5,0 0 0 N 10
07.12.2017 08:00:00 -3,0 -6,0 0 0 N 10
07.12.2017 07:00:00 -3,0 -6,0 0 0 N 10
07.12.2017 06:00:00 -3,0 -6,0 0 0 N 10
07.12.2017 05:00:00 - - - - - -
07.12.2017 04:00:00 - - - - - -

tt = Température de l'air
td = dewpoint
ff = Vitesse du vent
dd = Direction du vent
vv = visibility

stations d'obs. à proximité